Time;durP1;ratioP1;P1;durP2;ratioP2;P2;SDS_P1;SDS_P2;PMS_P1;PMS_P2;Temp;Humidity;BMP_temperature;BMP_pressure;BME280_temperature;BME280_humidity;BME280_pressure;Samples;Min_cycle;Max_cycle;Signal;HPM_P1;HPM_P2
2023/07/25 00:02:59;;;;;;;15.30;7.95;;;;;;;24.65;72.58;98895.03;6246270;28;20468;-69
2023/07/25 00:06:02;;;;;;;14.47;7.53;;;;;;;24.65;72.31;98895.84;6275965;28;20140;-70
2023/07/25 00:09:03;;;;;;;13.73;7.82;;;;;;;24.63;72.49;98902.44;6246001;28;20493;-69
2023/07/25 00:12:04;;;;;;;18.43;8.10;;;;;;;24.59;72.64;98919.88;6244926;28;20050;-68
2023/07/25 00:15:05;;;;;;;13.10;7.22;;;;;;;24.58;72.79;98927.03;6244670;28;20076;-69
2023/07/25 00:18:06;;;;;;;;;;;;;;;24.56;72.93;98931.78;6245405;28;20049;-69
2023/07/25 00:21:06;;;;;;;13.65;7.30;;;;;;;24.49;73.56;98938.97;6242165;28;19990;-69
2023/07/25 00:24:07;;;;;;;13.53;6.60;;;;;;;24.34;74.49;98942.69;6245158;28;20045;-69
2023/07/25 00:27:08;;;;;;;14.40;7.23;;;;;;;24.29;74.73;98934.50;6244288;28;20072;-69
2023/07/25 00:30:11;;;;;;;15.93;8.03;;;;;;;24.31;75.06;98928.97;6244973;28;20068;-69
2023/07/25 00:33:12;;;;;;;14.50;7.93;;;;;;;24.25;75.26;98922.63;6248254;28;20490;-68
2023/07/25 00:36:13;;;;;;;19.33;7.43;;;;;;;24.18;76.06;98919.16;6249014;28;20053;-68
2023/07/25 00:39:13;;;;;;;14.60;8.30;;;;;;;24.17;76.17;98930.03;6249115;28;20049;-69
2023/07/25 00:42:14;;;;;;;16.97;7.33;;;;;;;24.06;76.38;98915.50;6249249;28;20133;-68
2023/07/25 00:45:15;;;;;;;16.13;7.93;;;;;;;24.05;77.01;98917.38;6250154;28;20042;-69
2023/07/25 00:48:16;;;;;;;16.70;7.73;;;;;;;24.00;77.31;98922.47;6245778;28;20053;-70
2023/07/25 00:51:17;;;;;;;19.50;8.07;;;;;;;24.01;77.55;98923.28;6248078;28;20049;-71
2023/07/25 00:54:17;;;;;;;14.73;7.80;;;;;;;23.92;78.08;98912.06;6248367;28;20060;-71
2023/07/25 00:57:21;;;;;;;15.17;7.93;;;;;;;23.97;77.90;98914.09;6246361;28;20297;-70
2023/07/25 01:00:22;;;;;;;16.25;8.15;;;;;;;24.03;77.64;98915.91;6249794;28;20053;-71
2023/07/25 01:03:22;;;;;;;19.80;9.77;;;;;;;23.99;77.72;98915.53;6248715;28;20045;-71
2023/07/25 01:06:23;;;;;;;17.10;8.90;;;;;;;23.95;77.84;98916.97;6248475;28;20046;-71
2023/07/25 01:09:39;;;;;;;18.35;7.90;;;;;;;23.89;77.63;98917.81;6248321;28;20141;-71
2023/07/25 01:12:40;;;;;;;17.70;7.45;;;;;;;23.96;77.78;98931.09;6281416;28;20072;-71
2023/07/25 01:15:41;;;;;;;13.30;7.43;;;;;;;23.92;77.78;98928.03;6249614;28;20485;-71
2023/07/25 01:18:42;;;;;;;17.17;7.37;;;;;;;23.94;77.80;98926.78;6248929;28;20402;-69
2023/07/25 01:21:43;;;;;;;16.13;8.02;;;;;;;23.95;78.05;98935.63;6249279;28;20689;-71
2023/07/25 01:24:46;;;;;;;15.70;7.43;;;;;;;23.88;78.29;98924.16;6248306;28;20045;-71
2023/07/25 01:27:47;;;;;;;17.90;7.82;;;;;;;23.89;78.43;98909.81;6247867;28;20084;-71
2023/07/25 01:30:47;;;;;;;15.30;7.93;;;;;;;24.08;77.58;98879.63;6247650;28;20053;-71
2023/07/25 01:33:48;;;;;;;18.80;7.57;;;;;;;24.01;77.60;98857.53;6247579;28;20059;-69
2023/07/25 01:36:49;;;;;;;19.20;7.80;;;;;;;24.13;76.41;98831.03;6247751;28;20131;-71
2023/07/25 01:39:50;;;;;;;13.10;6.97;;;;;;;24.19;76.29;98819.53;6247604;28;20411;-71
2023/07/25 01:42:50;;;;;;;14.00;6.65;;;;;;;24.26;75.70;98809.66;6247591;28;20054;-71
2023/07/25 01:45:51;;;;;;;12.53;6.77;;;;;;;24.30;75.52;98831.41;6248825;28;20051;-71
2023/07/25 01:48:52;;;;;;;16.00;6.97;;;;;;;24.33;75.28;98869.09;6280582;28;20046;-70
2023/07/25 01:51:53;;;;;;;15.70;6.67;;;;;;;24.29;75.71;98883.84;6247478;28;20904;-69
2023/07/25 01:54:55;;;;;;;11.33;6.13;;;;;;;24.49;74.79;98867.81;6247297;28;20038;-68
2023/07/25 01:57:55;;;;;;;17.48;7.07;;;;;;;24.55;74.25;98828.81;6247317;28;20132;-69
2023/07/25 02:01:00;;;;;;;10.70;6.03;;;;;;;24.55;75.54;98798.69;6247116;28;20049;-68
2023/07/25 02:04:00;;;;;;;14.07;6.32;;;;;;;24.59;74.79;98806.03;6248451;28;20041;-71
2023/07/25 02:07:01;;;;;;;14.17;6.53;;;;;;;24.60;74.93;98793.50;6246964;28;20056;-71
2023/07/25 02:10:02;;;;;;;10.67;6.53;;;;;;;24.61;74.61;98832.50;6248210;28;20436;-71
2023/07/25 02:13:03;;;;;;;12.82;6.70;;;;;;;24.46;75.44;98929.53;6248211;28;20104;-71
2023/07/25 02:16:04;;;;;;;11.73;6.47;;;;;;;24.28;76.70;98978.19;6247525;28;20050;-70
2023/07/25 02:19:05;;;;;;;14.20;6.43;;;;;;;24.30;76.27;98967.31;6279902;28;20492;-70
2023/07/25 02:22:08;;;;;;;16.13;6.57;;;;;;;24.42;75.46;98943.47;6246582;28;20056;-71
2023/07/25 02:25:11;;;;;;;11.73;6.15;;;;;;;24.40;75.29;98956.19;6280019;28;20050;-71
2023/07/25 02:28:12;;;;;;;14.35;5.93;;;;;;;24.50;74.94;98985.94;6247793;28;20049;-71
2023/07/25 02:31:13;;;;;;;12.50;5.73;;;;;;;24.51;74.28;98988.41;6247908;28;20084;-71
2023/07/25 02:34:17;;;;;;;14.00;5.83;;;;;;;24.59;74.23;99029.22;6246209;28;20064;-71
2023/07/25 02:37:17;;;;;;;11.77;5.78;;;;;;;24.62;73.77;99039.44;6247825;28;20060;-71
2023/07/25 02:40:18;;;;;;;12.97;5.60;;;;;;;24.64;73.74;99046.19;6246075;28;20091;-71
2023/07/25 02:43:22;;;;;;;13.27;5.47;;;;;;;24.55;73.55;99046.66;6247785;28;20049;-70
2023/07/25 02:46:25;;;;;;;13.35;5.75;;;;;;;24.50;74.05;99037.44;6247422;28;20045;-71
2023/07/25 02:49:26;;;;;;;16.95;5.43;;;;;;;24.49;73.94;99026.94;6246208;28;20053;-70
2023/07/25 02:52:26;;;;;;;9.37;4.57;;;;;;;24.54;74.13;99016.50;6247348;28;20436;-70
2023/07/25 02:55:27;;;;;;;13.10;4.50;;;;;;;24.52;73.51;99003.38;6245640;28;20175;-70
2023/07/25 02:58:28;;;;;;;8.43;4.07;;;;;;;24.63;71.13;98979.75;6246410;28;20136;-70
2023/07/25 03:01:30;;;;;;;13.07;4.43;;;;;;;24.66;70.54;98993.47;6245811;28;20049;-71
2023/07/25 03:04:31;;;;;;;9.07;4.57;;;;;;;24.55;72.30;98978.16;6245986;28;20054;-71
2023/07/25 03:07:32;;;;;;;8.75;4.10;;;;;;;24.39;73.97;98975.91;6245834;28;20493;-71
2023/07/25 03:10:33;;;;;;;12.40;3.63;;;;;;;24.27;74.71;98959.72;6247053;28;20053;-71
2023/07/25 03:13:34;;;;;;;6.97;3.10;;;;;;;24.10;74.77;98938.06;6278992;28;20049;-71
2023/07/25 03:16:34;;;;;;;14.40;3.33;;;;;;;24.04;75.34;98882.94;6245668;28;20057;-71
2023/07/25 03:19:35;;;;;;;6.43;3.20;;;;;;;24.03;75.76;98841.31;6247171;28;20049;-71
2023/07/25 03:22:36;;;;;;;8.70;3.37;;;;;;;23.92;76.73;98821.50;6246375;28;20053;-71
2023/07/25 03:25:37;;;;;;;5.20;2.87;;;;;;;23.81;78.52;98819.50;6245856;28;20045;-71
2023/07/25 03:28:37;;;;;;;9.17;3.20;;;;;;;23.97;79.47;98791.53;6246528;28;20056;-71
2023/07/25 03:31:38;;;;;;;12.33;3.23;;;;;;;23.80;80.50;98805.31;6245339;28;20077;-71
2023/07/25 03:34:41;;;;;;;5.60;2.83;;;;;;;23.81;82.75;98819.50;6245369;28;20115;-70
2023/07/25 03:37:42;;;;;;;9.48;3.22;;;;;;;23.58;85.65;98842.03;6246751;28;20053;-69
2023/07/25 03:40:43;;;;;;;8.37;3.00;;;;;;;23.26;87.73;98860.47;6245267;28;20573;-69
2023/07/25 03:43:43;;;;;;;9.83;3.27;;;;;;;23.43;88.63;98892.00;6278345;28;20046;-69
2023/07/25 03:46:44;;;;;;;9.60;3.87;;;;;;;23.54;87.74;98899.38;6244966;28;20046;-69
2023/07/25 03:49:45;;;;;;;9.87;3.10;;;;;;;23.57;87.62;98853.69;6278404;28;20049;-69
2023/07/25 03:52:46;;;;;;;6.18;3.22;;;;;;;23.57;86.58;98791.66;6246493;28;20278;-69
2023/07/25 03:55:47;;;;;;;5.57;3.13;;;;;;;23.62;87.01;98810.50;6246259;28;20056;-69
2023/07/25 03:58:48;;;;;;;8.27;3.37;;;;;;;23.71;85.27;98818.03;6278530;28;20060;-69
2023/07/25 04:01:48;;;;;;;6.67;3.03;;;;;;;23.74;85.86;98814.97;6246356;28;20110;-69
2023/07/25 04:04:49;;;;;;;5.50;2.83;;;;;;;23.69;86.08;98800.63;6245022;28;20048;-69
2023/07/25 04:07:50;;;;;;;4.77;2.90;;;;;;;23.66;87.04;98791.22;6248575;28;20492;-69
2023/07/25 04:10:50;;;;;;;7.67;3.03;;;;;;;23.70;87.18;98803.09;6283045;28;20056;-69
2023/07/25 04:13:51;;;;;;;5.60;2.50;;;;;;;23.70;85.79;98810.25;6283204;28;20064;-69
2023/07/25 04:16:52;;;;;;;5.60;2.67;;;;;;;23.65;86.61;98818.88;6249871;28;20057;-69
2023/07/25 04:19:52;;;;;;;6.33;3.20;;;;;;;23.67;87.74;98808.81;6282851;28;20485;-69
2023/07/25 04:22:53;;;;;;;5.27;2.67;;;;;;;23.65;86.53;98813.53;6282707;28;20045;-71
2023/07/25 04:25:56;;;;;;;5.80;3.17;;;;;;;23.64;87.48;98816.41;6249547;28;20045;-71
2023/07/25 04:28:57;;;;;;;6.07;2.80;;;;;;;23.64;87.91;98806.59;6250414;28;20049;-71
2023/07/25 04:31:57;;;;;;;6.10;2.67;;;;;;;23.56;87.73;98825.44;6248785;28;20516;-71
2023/07/25 04:34:58;;;;;;;5.70;2.93;;;;;;;23.43;87.30;98820.13;6249268;28;20056;-70
2023/07/25 04:37:59;;;;;;;6.13;3.03;;;;;;;23.57;86.58;98831.59;6249140;28;20107;-69
2023/07/25 04:41:00;;;;;;;6.87;3.17;;;;;;;23.54;86.35;98819.50;6249859;28;20107;-71
2023/07/25 04:44:02;;;;;;;6.03;2.50;;;;;;;23.65;85.69;98792.25;6250011;28;20391;-69
2023/07/25 04:47:03;;;;;;;7.88;2.72;;;;;;;23.62;85.35;98829.13;6250115;28;20093;-71
2023/07/25 04:50:04;;;;;;;5.38;2.67;;;;;;;23.73;84.80;98800.00;6281763;28;20053;-71
2023/07/25 04:53:06;;;;;;;6.25;3.13;;;;;;;23.81;83.53;98822.97;6249175;28;20050;-69
2023/07/25 04:56:09;;;;;;;4.40;2.80;;;;;;;24.01;83.61;98798.09;6249960;28;20133;-69
2023/07/25 04:59:10;;;;;;;6.40;2.47;;;;;;;24.07;83.58;98808.75;6250086;28;20060;-68
2023/07/25 05:02:10;;;;;;;6.17;2.57;;;;;;;24.10;81.85;98821.63;6246368;28;20053;-69
2023/07/25 05:05:11;;;;;;;7.57;2.63;;;;;;;24.25;81.95;98826.69;6249956;28;20053;-71
2023/07/25 05:08:14;;;;;;;7.37;2.50;;;;;;;24.08;80.86;98836.19;6248582;28;20049;-71
2023/07/25 05:11:15;;;;;;;5.57;2.45;;;;;;;24.18;81.65;98828.56;6248493;28;20057;-71
2023/07/25 05:14:18;;;;;;;5.17;2.80;;;;;;;24.24;79.96;98842.91;6281771;28;20077;-71
2023/07/25 05:17:18;;;;;;;4.22;2.22;;;;;;;24.29;79.58;98849.22;6247980;28;20056;-71
2023/07/25 05:20:19;;;;;;;6.43;2.60;;;;;;;24.33;79.26;98857.59;6248232;28;20046;-71
2023/07/25 05:23:20;;;;;;;4.17;2.47;;;;;;;24.29;79.09;98846.53;6248138;28;20547;-71
2023/07/25 05:26:20;;;;;;;5.80;2.77;;;;;;;24.25;79.10;98861.31;6249149;28;20046;-71
2023/07/25 05:29:21;;;;;;;8.53;2.60;;;;;;;24.41;79.64;98870.69;6249174;28;20057;-71
2023/07/25 05:32:22;;;;;;;5.93;2.40;;;;;;;24.48;77.54;98881.31;6281115;28;20049;-71
2023/07/25 05:35:23;;;;;;;5.70;2.40;;;;;;;24.53;77.17;98885.03;6248826;28;20459;-71
2023/07/25 05:38:24;;;;;;;6.67;2.93;;;;;;;24.60;77.31;98876.19;6249293;28;20049;-71
2023/07/25 05:41:25;;;;;;;6.78;3.10;;;;;;;24.70;76.11;98866.66;6248445;28;20139;-71
2023/07/25 05:44:25;;;;;;;6.07;2.20;;;;;;;24.84;76.28;98864.75;6247469;28;20041;-72
2023/07/25 05:47:30;;;;;;;3.50;2.07;;;;;;;24.97;76.77;98873.69;6247604;28;20057;-71
2023/07/25 05:50:30;;;;;;;3.80;2.03;;;;;;;25.02;73.54;98872.03;6247403;28;20057;-71
2023/07/25 05:53:31;;;;;;;8.70;2.63;;;;;;;25.02;72.87;98881.84;6248741;28;20398;-71
2023/07/25 05:56:32;;;;;;;8.87;2.43;;;;;;;25.21;71.80;98878.28;6247826;28;20053;-71
2023/07/25 05:59:33;;;;;;;3.80;2.20;;;;;;;25.38;70.60;98859.84;6280701;28;20118;-71
2023/07/25 06:02:34;;;;;;;6.20;2.20;;;;;;;25.66;70.25;98856.72;6247303;28;20057;-71
2023/07/25 06:05:34;;;;;;;8.57;2.20;;;;;;;25.71;69.03;98853.38;6247034;28;20404;-71
2023/07/25 06:08:35;;;;;;;4.73;2.17;;;;;;;25.85;69.55;98849.53;6248393;28;20136;-72
2023/07/25 06:11:36;;;;;;;6.63;2.37;;;;;;;25.87;69.02;98858.16;6247941;28;20053;-71
2023/07/25 06:14:37;;;;;;;5.33;2.50;;;;;;;25.72;67.10;98871.06;6246949;28;20132;-71
2023/07/25 06:17:37;;;;;;;3.63;1.90;;;;;;;25.65;67.24;98876.44;6246663;28;20072;-71
2023/07/25 06:20:38;;;;;;;5.80;1.83;;;;;;;25.63;67.33;98877.72;6247958;28;20119;-71
2023/07/25 06:23:39;;;;;;;5.20;2.10;;;;;;;25.72;68.26;98876.41;6246542;28;20071;-71
2023/07/25 06:26:40;;;;;;;5.57;2.40;;;;;;;25.77;66.43;98862.38;6246908;28;20485;-71
2023/07/25 06:29:41;;;;;;;4.70;2.10;;;;;;;25.89;63.97;98861.44;6278927;28;20053;-71
2023/07/25 06:32:42;;;;;;;5.55;2.30;;;;;;;26.16;65.24;98868.34;6248073;28;20050;-71
2023/07/25 06:35:43;;;;;;;6.90;2.42;;;;;;;26.19;65.16;98866.06;6247541;28;20053;-71
2023/07/25 06:38:43;;;;;;;8.27;2.30;;;;;;;26.28;65.64;98870.03;6247584;28;20128;-71
2023/07/25 06:41:44;;;;;;;6.13;2.50;;;;;;;26.14;66.66;98861.38;6246470;28;20286;-71
2023/07/25 06:44:45;;;;;;;10.43;2.10;;;;;;;26.20;65.94;98862.34;6247352;28;20127;-71
2023/07/25 06:47:48;;;;;;;8.63;2.67;;;;;;;26.27;66.76;98856.91;6246477;28;20053;-71
2023/07/25 06:50:48;;;;;;;8.55;2.60;;;;;;;26.43;65.51;98852.78;6245958;28;20050;-71
2023/07/25 06:53:49;;;;;;;7.10;2.63;;;;;;;26.34;64.63;98861.13;6247490;28;20410;-71
2023/07/25 06:56:52;;;;;;;6.00;2.47;;;;;;;26.56;65.00;98870.53;6247260;28;20119;-71
2023/07/25 06:59:55;;;;;;;5.43;2.20;;;;;;;26.71;64.39;98863.75;6247238;28;20053;-72
2023/07/25 07:02:56;;;;;;;7.13;2.72;;;;;;;26.84;64.07;98853.91;6245825;28;20049;-72
2023/07/25 07:05:57;;;;;;;5.07;2.20;;;;;;;26.93;63.34;98858.72;6247170;28;20046;-71
2023/07/25 07:08:57;;;;;;;6.22;2.72;;;;;;;27.20;64.07;98866.31;6245960;28;20054;-71
2023/07/25 07:11:58;;;;;;;9.10;3.03;;;;;;;27.09;61.99;98862.56;6245512;28;20045;-71
2023/07/25 07:14:59;;;;;;;6.57;2.65;;;;;;;27.39;63.34;98858.22;6246955;28;20340;-70
2023/07/25 07:18:02;;;;;;;7.50;2.80;;;;;;;27.32;62.03;98851.13;6245475;28;20394;-70
2023/07/25 07:21:03;;;;;;;4.88;2.80;;;;;;;27.46;62.29;98832.13;6246657;28;20050;-70
2023/07/25 07:24:04;;;;;;;4.63;2.40;;;;;;;27.82;60.76;98831.06;6245338;28;20049;-69
2023/07/25 07:27:05;;;;;;;6.05;2.60;;;;;;;27.57;58.27;98828.63;6245625;28;20057;-69
2023/07/25 07:30:06;;;;;;;7.30;2.55;;;;;;;27.87;58.37;98828.50;6245267;28;20053;-70
2023/07/25 07:33:07;;;;;;;7.82;2.38;;;;;;;27.99;57.26;98825.81;6246629;28;20136;-69
2023/07/25 07:36:08;;;;;;;6.30;2.22;;;;;;;27.91;57.06;98828.84;6246369;28;20059;-69
2023/07/25 07:39:12;;;;;;;3.30;2.30;;;;;;;28.07;58.43;98836.16;6245229;28;20049;-70
2023/07/25 07:42:13;;;;;;;5.95;2.20;;;;;;;28.28;56.06;98840.03;6250522;28;20616;-69
2023/07/25 07:45:14;;;;;;;5.38;2.55;;;;;;;28.34;56.10;98824.88;6251375;28;20057;-70
2023/07/25 07:48:15;;;;;;;6.47;2.60;;;;;;;28.45;55.52;98829.34;6251362;28;20140;-69
2023/07/25 07:51:16;;;;;;;4.35;2.60;;;;;;;28.38;55.27;98827.91;6251245;28;20053;-70
2023/07/25 07:54:16;;;;;;;6.55;2.55;;;;;;;28.17;56.06;98827.50;6251637;28;20049;-69
2023/07/25 07:57:17;;;;;;;4.63;2.40;;;;;;;28.32;54.95;98829.66;6250987;28;20081;-70
2023/07/25 08:00:18;;;;;;;5.40;2.53;;;;;;;28.49;54.23;98827.84;6249982;28;20054;-69
2023/07/25 08:03:19;;;;;;;6.03;2.55;;;;;;;28.70;55.23;98828.22;6249938;28;20103;-70
2023/07/25 08:06:20;;;;;;;6.88;2.40;;;;;;;28.98;54.96;98827.38;6250871;28;20049;-70
2023/07/25 08:09:21;;;;;;;5.72;2.58;;;;;;;29.20;54.90;98821.28;6249801;28;20135;-70
2023/07/25 08:12:22;;;;;;;7.65;2.38;;;;;;;29.41;52.47;98808.97;6249585;28;20510;-70
2023/07/25 08:15:23;;;;;;;3.72;2.30;;;;;;;29.57;52.99;98816.19;6249705;28;20559;-69
2023/07/25 08:18:26;;;;;;;7.90;2.55;;;;;;;29.79;53.89;98813.53;6249638;28;20057;-70
2023/07/25 08:21:27;;;;;;;5.10;2.40;;;;;;;29.66;50.41;98812.00;6250888;28;20064;-69
2023/07/25 08:24:32;;;;;;;4.10;2.13;;;;;;;30.02;50.06;98814.34;6249348;28;20046;-70
2023/07/25 08:27:32;;;;;;;5.93;2.90;;;;;;;30.26;50.25;98813.03;6250692;28;20061;-69
2023/07/25 08:30:33;;;;;;;3.47;2.10;;;;;;;30.30;48.31;98811.47;6250522;28;20049;-69
2023/07/25 08:33:36;;;;;;;6.15;2.40;;;;;;;30.42;49.12;98813.22;6249250;28;20054;-70
2023/07/25 08:36:39;;;;;;;5.80;2.20;;;;;;;30.55;48.00;98809.31;6250687;28;20049;-71
2023/07/25 08:39:40;;;;;;;6.22;2.67;;;;;;;30.49;48.57;98819.22;6250332;28;20056;-70
2023/07/25 08:42:45;;;;;;;4.53;2.25;;;;;;;30.07;47.66;98823.31;6250274;28;20045;-70
2023/07/25 08:45:50;;;;;;;3.80;2.03;;;;;;;30.25;48.69;98824.03;6250007;28;20041;-70
2023/07/25 08:48:59;;;;;;;4.93;2.28;;;;;;;30.23;47.75;98839.59;6249021;28;20056;-71
2023/07/25 08:52:04;;;;;;;5.38;2.20;;;;;;;30.36;47.98;98836.56;6247930;28;20057;-71
2023/07/25 08:55:06;;;;;;;4.55;2.50;;;;;;;30.43;45.71;98844.44;6248755;28;20520;-71
2023/07/25 08:58:06;;;;;;;;;;;;;;;30.73;46.50;98835.88;6250243;28;20111;-71
2023/07/25 09:01:07;;;;;;;7.07;2.23;;;;;;;30.68;45.38;98838.50;6248853;28;20008;-71
2023/07/25 09:04:11;;;;;;;5.00;2.15;;;;;;;30.84;46.32;98840.25;6248295;28;20046;-72
2023/07/25 09:07:12;;;;;;;4.22;2.13;;;;;;;31.00;45.12;98832.34;6248704;28;20063;-72
2023/07/25 09:10:13;;;;;;;3.65;2.05;;;;;;;31.21;45.33;98827.94;6248364;28;20076;-71
2023/07/25 09:13:16;;;;;;;6.47;1.92;;;;;;;31.57;45.39;98812.84;6248323;28;20136;-72
2023/07/25 09:16:17;;;;;;;4.97;1.75;;;;;;;31.72;45.06;98807.50;6249671;28;20045;-72
2023/07/25 09:19:18;;;;;;;4.30;2.17;;;;;;;31.55;44.32;98804.19;6248087;28;20096;-71
2023/07/25 09:22:29;;;;;;;;;;;;;;;31.43;43.72;98793.59;6249887;28;20059;-71
2023/07/25 09:25:30;;;;;;;3.47;1.90;;;;;;;31.50;45.30;98786.13;6247956;28;19924;-72
2023/07/25 09:28:31;;;;;;;4.22;1.83;;;;;;;31.57;44.87;98774.28;6249136;28;20425;-72
2023/07/25 09:31:42;;;;;;;4.03;1.70;;;;;;;31.20;43.50;98765.16;6247992;28;20203;-71
2023/07/25 09:34:45;;;;;;;;;;;;;;;30.94;44.41;98756.09;6248064;28;20060;-72
2023/07/25 09:37:55;;;;;;;5.00;1.88;;;;;;;31.15;44.88;98751.66;6247656;28;20044;-72
2023/07/25 09:40:56;;;;;;;2.75;1.48;;;;;;;31.17;44.65;98751.41;6249875;28;20060;-71
2023/07/25 09:44:05;;;;;;;2.53;1.60;;;;;;;30.99;44.78;98761.53;6249107;28;20054;-71
2023/07/25 09:47:07;;;;;;;3.67;1.80;;;;;;;31.30;45.14;98759.84;6248888;28;20062;-72
2023/07/25 09:50:08;;;;;;;3.58;1.38;;;;;;;31.55;43.97;98758.38;6248759;28;20057;-72
2023/07/25 09:53:11;;;;;;;4.57;1.70;;;;;;;31.55;43.28;98752.16;6248411;28;20107;-71
2023/07/25 09:56:14;;;;;;;3.03;1.50;;;;;;;31.64;43.68;98750.59;6247345;28;20042;-71
2023/07/25 09:59:14;;;;;;;3.90;1.35;;;;;;;31.54;42.61;98754.06;6248695;28;20060;-71
2023/07/25 10:02:15;;;;;;;3.22;1.80;;;;;;;31.44;43.94;98752.13;6247171;28;20049;-71
2023/07/25 10:05:16;;;;;;;3.40;1.40;;;;;;;31.63;44.95;98749.78;6247245;28;20046;-70
2023/07/25 10:08:19;;;;;;;5.75;2.10;;;;;;;31.71;42.86;98738.50;6247188;28;20085;-70
2023/07/25 10:11:23;;;;;;;3.30;1.60;;;;;;;32.03;43.46;98734.84;6246871;28;20085;-71
2023/07/25 10:14:24;;;;;;;2.30;1.50;;;;;;;31.94;41.70;98720.22;6247924;28;20053;-70
2023/07/25 10:17:25;;;;;;;5.00;2.13;;;;;;;32.02;42.84;98729.69;6246834;28;20050;-70
2023/07/25 10:20:26;;;;;;;;;;;;;;;31.79;42.44;98722.88;6248472;28;20050;-70
2023/07/25 10:23:31;;;;;;;5.77;1.50;;;;;;;31.66;41.63;98719.59;6246583;28;19924;-70
2023/07/25 10:26:32;;;;;;;4.28;1.50;;;;;;;31.91;43.09;98707.25;6247814;28;21004;-70
2023/07/25 10:29:43;;;;;;;5.18;1.92;;;;;;;31.87;42.71;98700.78;6247640;28;20064;-70
2023/07/25 10:32:45;;;;;;;;;;;;;;;31.86;42.47;98710.75;6246772;28;20398;-70
2023/07/25 10:35:52;;;;;;;2.10;1.48;;;;;;;31.86;43.99;98709.97;6246021;28;19921;-70
2023/07/25 10:39:09;;;;;;;2.65;1.33;;;;;;;31.89;43.60;98710.22;6247644;28;20061;-70
2023/07/25 10:42:15;;;;;;;4.85;1.65;;;;;;;31.73;44.63;98716.66;6246330;28;20045;-71
2023/07/25 10:45:28;;;;;;;4.00;1.70;;;;;;;31.78;44.76;98719.38;6247164;28;20046;-70
2023/07/25 10:48:31;;;;;;;4.13;1.50;;;;;;;31.49;44.75;98741.38;6247208;28;20092;-70
2023/07/25 10:51:52;;;;;;;2.28;1.60;;;;;;;31.14;45.88;98752.75;6247472;28;20049;-70
2023/07/25 10:55:03;;;;;;;;;;;;;;;30.98;44.85;98769.88;6245739;28;20053;-70
2023/07/25 10:58:10;;;;;;;4.80;1.70;;;;;;;30.83;43.68;98776.72;6239719;28;19928;-70
2023/07/25 11:01:50;;;;;;;4.57;1.60;;;;;;;30.87;43.88;98772.47;6245534;28;20088;-70
2023/07/25 11:05:14;;;;;;;5.80;1.67;;;;;;;30.68;43.95;98785.50;6245245;28;20099;-69
2023/07/25 11:21:37;;;;;;;3.30;1.43;;;;;;;31.22;45.71;98789.97;6271652;27;20399;-74
2023/07/25 11:24:43;;;;;;;4.95;1.50;;;;;;;31.28;45.96;98797.00;6267320;28;20049;-72
2023/07/25 11:27:47;;;;;;;9.43;1.73;;;;;;;30.72;46.44;98799.22;6266964;28;20049;-72
2023/07/25 11:30:48;;;;;;;4.00;1.27;;;;;;;30.50;46.33;98793.94;6267006;28;20488;-72
2023/07/25 11:33:48;;;;;;;4.07;1.42;;;;;;;30.27;46.80;98779.69;6260297;28;20048;-74
2023/07/25 11:36:49;;;;;;;3.33;1.33;;;;;;;30.17;46.96;98776.09;6267103;28;20049;-72
2023/07/25 11:39:50;;;;;;;5.07;1.50;;;;;;;29.99;46.56;98771.84;6264686;28;20202;-72
2023/07/25 11:42:51;;;;;;;3.97;1.58;;;;;;;30.01;46.35;98764.34;6267460;28;20053;-72
2023/07/25 11:45:53;;;;;;;3.58;1.38;;;;;;;30.18;48.15;98748.13;6264194;28;20049;-72
2023/07/25 11:48:54;;;;;;;2.63;1.40;;;;;;;30.30;48.36;98741.53;6266278;28;20041;-72
2023/07/25 11:51:55;;;;;;;2.70;1.40;;;;;;;30.56;48.71;98738.25;6267230;28;20053;-72
2023/07/25 11:54:56;;;;;;;3.25;1.48;;;;;;;30.56;47.03;98733.72;6265912;28;20053;-72
2023/07/25 11:58:01;;;;;;;5.15;1.20;;;;;;;30.86;45.33;98735.00;6266990;28;20111;-72
2023/07/25 12:01:02;;;;;;;4.80;1.38;;;;;;;31.09;47.29;98726.59;6252138;28;20111;-72
2023/07/25 12:04:12;;;;;;;6.15;1.63;;;;;;;30.99;47.16;98688.81;6242733;28;20045;-72
2023/07/25 12:07:15;;;;;;;3.70;1.50;;;;;;;31.17;47.27;98692.94;6241377;28;20048;-72
2023/07/25 12:10:31;;;;;;;6.53;1.38;;;;;;;30.95;46.45;98692.28;6242531;28;20500;-72
2023/07/25 12:13:32;;;;;;;3.47;1.48;;;;;;;30.62;44.49;98686.94;6242414;28;20104;-70
2023/07/25 12:16:35;;;;;;;3.53;1.33;;;;;;;30.55;46.54;98678.25;6241386;28;20054;-70
2023/07/25 12:19:36;;;;;;;5.32;1.58;;;;;;;30.36;45.55;98679.72;6248011;28;20077;-70
2023/07/25 12:22:37;;;;;;;2.42;1.55;;;;;;;30.33;48.63;98697.16;6248943;28;20134;-70
2023/07/25 12:25:38;;;;;;;2.42;1.20;;;;;;;30.11;46.98;98691.84;6249305;28;20080;-70
2023/07/25 12:28:40;;;;;;;2.83;1.30;;;;;;;29.84;50.18;98698.03;6249566;28;20050;-70
2023/07/25 12:31:41;;;;;;;4.70;1.73;;;;;;;29.64;52.19;98728.13;6248280;28;20045;-70
2023/07/25 12:34:42;;;;;;;4.60;1.42;;;;;;;29.39;51.42;98742.06;6248674;28;20516;-72
2023/07/25 12:37:42;;;;;;;5.45;1.60;;;;;;;29.09;49.98;98742.41;6245356;28;20433;-71
2023/07/25 12:40:45;;;;;;;4.03;1.20;;;;;;;29.17;52.42;98749.28;6244805;28;20128;-71
2023/07/25 12:43:48;;;;;;;5.20;1.40;;;;;;;28.97;52.09;98741.69;6244371;28;20081;-72
2023/07/25 12:46:49;;;;;;;4.30;1.52;;;;;;;28.76;54.40;98746.75;6243359;28;20128;-72
2023/07/25 12:49:52;;;;;;;2.92;1.50;;;;;;;28.10;58.50;98749.06;6279044;28;20099;-71
2023/07/25 12:52:53;;;;;;;3.08;1.73;;;;;;;27.69;61.11;98740.19;6234132;28;20154;-72
2023/07/25 12:55:54;;;;;;;2.22;1.50;;;;;;;27.94;61.84;98737.22;6247448;28;20489;-71
2023/07/25 12:58:55;;;;;;;2.88;1.67;;;;;;;28.56;60.11;98741.88;6247151;28;20045;-71
2023/07/25 13:01:55;;;;;;;4.85;1.92;;;;;;;28.71;59.59;98727.88;6248463;28;20057;-72
2023/07/25 13:04:56;;;;;;;5.28;1.75;;;;;;;28.41;61.07;98717.44;6248433;28;20045;-72
2023/07/25 13:07:59;;;;;;;2.97;1.40;;;;;;;28.42;58.46;98692.25;6249590;28;20567;-71
2023/07/25 13:11:01;;;;;;;2.38;1.52;;;;;;;28.33;60.80;98681.09;6248119;28;20420;-71
2023/07/25 13:14:02;;;;;;;3.47;1.48;;;;;;;28.19;59.64;98672.56;6248108;28;20055;-71
2023/07/25 13:17:03;;;;;;;3.80;1.42;;;;;;;28.21;61.34;98661.56;6248510;28;20053;-71
2023/07/25 13:20:08;;;;;;;5.80;1.90;;;;;;;28.37;59.22;98641.19;6247969;28;20674;-72
2023/07/25 13:23:12;;;;;;;4.13;1.50;;;;;;;28.43;59.66;98640.22;6248228;28;20485;-72
2023/07/25 13:26:13;;;;;;;3.80;1.65;;;;;;;28.61;61.18;98658.78;6249155;28;20076;-72
2023/07/25 13:29:14;;;;;;;4.13;1.77;;;;;;;29.00;58.52;98658.78;6248494;28;20481;-72
2023/07/25 13:32:14;;;;;;;2.15;1.25;;;;;;;29.39;57.35;98671.41;6247907;28;20057;-72
2023/07/25 13:35:15;;;;;;;4.05;1.40;;;;;;;29.72;58.56;98673.97;6249137;28;20054;-72
2023/07/25 13:38:16;;;;;;;8.55;1.75;;;;;;;29.73;57.92;98683.66;6247875;28;20059;-71
2023/07/25 13:41:17;;;;;;;4.28;1.33;;;;;;;29.62;57.20;98689.16;6248628;28;20049;-72
2023/07/25 13:44:20;;;;;;;3.58;1.88;;;;;;;29.33;56.67;98698.19;6242225;28;20493;-72
2023/07/25 13:47:21;;;;;;;6.20;2.03;;;;;;;28.98;59.94;98701.19;6231989;28;20116;-72
2023/07/25 13:50:22;;;;;;;2.67;1.42;;;;;;;28.75;60.20;98712.94;6236745;28;20425;-71
2023/07/25 13:53:23;;;;;;;9.93;1.58;;;;;;;28.79;61.13;98707.88;6246858;28;20057;-71
2023/07/25 13:56:26;;;;;;;;;;;;;;;28.86;60.31;98693.22;6247739;28;20049;-71
2023/07/25 13:59:27;;;;;;;7.22;1.80;;;;;;;28.84;61.96;98699.91;6247135;28;19920;-71
2023/07/25 14:02:28;;;;;;;6.60;1.30;;;;;;;29.05;63.15;98692.94;6247060;28;20108;-72
2023/07/25 14:05:31;;;;;;;6.72;1.48;;;;;;;29.12;61.89;98677.53;6247868;28;20091;-72
2023/07/25 14:08:32;;;;;;;4.80;1.23;;;;;;;28.84;61.96;98654.28;6248320;28;20493;-72
2023/07/25 14:11:32;;;;;;;3.97;1.27;;;;;;;28.65;56.53;98640.31;6248039;28;20053;-71
2023/07/25 14:14:34;;;;;;;2.15;1.42;;;;;;;28.64;56.85;98622.56;6237526;28;20061;-71
2023/07/25 14:17:35;;;;;;;3.58;1.30;;;;;;;28.59;56.11;98606.41;6222447;28;20057;-72
2023/07/25 14:20:38;;;;;;;5.57;1.38;;;;;;;28.51;55.69;98588.88;6221692;28;20046;-71
2023/07/25 14:23:38;;;;;;;3.65;1.38;;;;;;;28.45;57.17;98579.09;6223469;28;20049;-70
2023/07/25 14:26:41;;;;;;;4.53;1.55;;;;;;;28.23;58.53;98552.19;6232748;28;20054;-70
2023/07/25 14:29:42;;;;;;;3.10;1.10;;;;;;;28.18;60.10;98546.78;6247345;28;20046;-70
2023/07/25 14:32:45;;;;;;;7.47;1.83;;;;;;;28.07;59.65;98530.53;6247252;28;20128;-70